Terminal Aerodrome Forecast
Issued by NWS Shreveport, LA

Home | Current Version | Previous Version | Text Only | Print | Product List | Glossary On
Versions: 1 2 3 4 5 6 7 8 9 10 11 12 13
123
FTUS44 KSHV 110520
TAFGGG
TAF
KGGG 110520Z 1106/1206 23005KT P6SM SKC
     FM111500 24012KT P6SM SCT250
     FM120000 25010KT P6SM SCT250
     FM120500 32010KT P6SM SCT250=

USA.gov is the U.S. government's official web portal to all federal, state and local government web resources and services.